sensor_id;sensor_type;location;lat;lon;timestamp;pressure;altitude;pressure_sealevel;temperature;humidity
62789;BME280;66401;42.016;21.454;2023-08-06T00:02:13;97145.81;;;18.62;90.69
62789;BME280;66401;42.016;21.454;2023-08-06T00:04:38;97135.53;;;18.60;93.03
62789;BME280;66401;42.016;21.454;2023-08-06T00:07:04;97124.47;;;18.58;92.34
62789;BME280;66401;42.016;21.454;2023-08-06T00:09:30;97131.06;;;18.66;92.32
62789;BME280;66401;42.016;21.454;2023-08-06T00:11:55;97142.91;;;18.64;92.67
62789;BME280;66401;42.016;21.454;2023-08-06T00:14:21;97157.19;;;18.57;92.88
62789;BME280;66401;42.016;21.454;2023-08-06T00:16:46;97166.41;;;18.65;92.69
62789;BME280;66401;42.016;21.454;2023-08-06T00:19:12;97161.97;;;18.45;92.20
62789;BME280;66401;42.016;21.454;2023-08-06T00:21:37;97163.50;;;18.56;91.69
62789;BME280;66401;42.016;21.454;2023-08-06T00:24:03;97167.72;;;18.52;92.04
62789;BME280;66401;42.016;21.454;2023-08-06T00:26:28;97168.28;;;18.49;92.29
62789;BME280;66401;42.016;21.454;2023-08-06T00:28:54;97166.47;;;18.45;92.80
62789;BME280;66401;42.016;21.454;2023-08-06T00:31:19;97165.13;;;18.42;93.22
62789;BME280;66401;42.016;21.454;2023-08-06T00:33:44;97164.09;;;18.43;93.04
62789;BME280;66401;42.016;21.454;2023-08-06T00:36:10;97175.16;;;18.40;91.69
62789;BME280;66401;42.016;21.454;2023-08-06T00:38:35;97182.03;;;18.36;93.62
62789;BME280;66401;42.016;21.454;2023-08-06T00:41:01;97181.47;;;18.49;93.02
62789;BME280;66401;42.016;21.454;2023-08-06T00:43:26;97176.22;;;18.44;92.95
62789;BME280;66401;42.016;21.454;2023-08-06T00:45:52;97179.09;;;18.48;92.69
62789;BME280;66401;42.016;21.454;2023-08-06T00:48:17;97188.03;;;18.52;92.02
62789;BME280;66401;42.016;21.454;2023-08-06T00:50:43;97189.88;;;18.51;91.53
62789;BME280;66401;42.016;21.454;2023-08-06T00:53:09;97192.56;;;18.41;92.54
62789;BME280;66401;42.016;21.454;2023-08-06T00:55:35;97202.31;;;18.41;92.22
62789;BME280;66401;42.016;21.454;2023-08-06T00:58:01;97215.72;;;18.49;92.24
62789;BME280;66401;42.016;21.454;2023-08-06T01:00:27;97196.00;;;18.37;92.05
62789;BME280;66401;42.016;21.454;2023-08-06T01:02:53;97209.97;;;18.32;92.96
62789;BME280;66401;42.016;21.454;2023-08-06T01:05:21;97202.84;;;18.33;93.03
62789;BME280;66401;42.016;21.454;2023-08-06T01:13:47;97186.00;;;18.28;92.74
62789;BME280;66401;42.016;21.454;2023-08-06T01:16:18;97187.06;;;18.27;93.38
62789;BME280;66401;42.016;21.454;2023-08-06T01:18:44;97173.38;;;18.25;93.32
62789;BME280;66401;42.016;21.454;2023-08-06T01:21:14;97169.66;;;18.37;91.59
62789;BME280;66401;42.016;21.454;2023-08-06T01:23:41;97171.25;;;18.27;91.92
62789;BME280;66401;42.016;21.454;2023-08-06T01:29:10;97168.06;;;18.36;92.52
62789;BME280;66401;42.016;21.454;2023-08-06T01:31:39;97161.75;;;18.26;92.79
62789;BME280;66401;42.016;21.454;2023-08-06T01:34:10;97152.31;;;18.15;93.06
62789;BME280;66401;42.016;21.454;2023-08-06T01:36:39;97161.00;;;18.11;92.94
62789;BME280;66401;42.016;21.454;2023-08-06T01:39:06;97162.06;;;18.15;92.61
62789;BME280;66401;42.016;21.454;2023-08-06T01:41:31;97154.44;;;17.93;93.21
62789;BME280;66401;42.016;21.454;2023-08-06T01:43:57;97153.13;;;17.80;92.04
62789;BME280;66401;42.016;21.454;2023-08-06T01:46:22;97151.81;;;17.88;91.44
62789;BME280;66401;42.016;21.454;2023-08-06T01:48:48;97147.06;;;17.85;92.75
62789;BME280;66401;42.016;21.454;2023-08-06T01:51:13;97151.03;;;17.72;92.25
62789;BME280;66401;42.016;21.454;2023-08-06T01:53:39;97150.50;;;17.70;91.93
62789;BME280;66401;42.016;21.454;2023-08-06T01:56:04;97147.88;;;17.75;92.69
62789;BME280;66401;42.016;21.454;2023-08-06T01:58:30;97142.59;;;17.75;92.25
62789;BME280;66401;42.016;21.454;2023-08-06T02:00:55;97115.22;;;17.71;92.63
62789;BME280;66401;42.016;21.454;2023-08-06T02:03:20;97135.19;;;18.02;91.83
62789;BME280;66401;42.016;21.454;2023-08-06T02:05:46;97134.13;;;18.03;92.72
62789;BME280;66401;42.016;21.454;2023-08-06T02:08:11;97125.94;;;18.10;91.64
62789;BME280;66401;42.016;21.454;2023-08-06T02:10:37;97131.75;;;18.12;91.15
62789;BME280;66401;42.016;21.454;2023-08-06T02:13:02;97144.19;;;17.96;92.86
62789;BME280;66401;42.016;21.454;2023-08-06T02:15:28;97148.91;;;17.89;93.72
62789;BME280;66401;42.016;21.454;2023-08-06T02:17:53;97154.16;;;17.99;95.17
62789;BME280;66401;42.016;21.454;2023-08-06T02:20:19;97145.22;;;18.00;95.06
62789;BME280;66401;42.016;21.454;2023-08-06T02:22:44;97151.75;;;18.18;92.72
62789;BME280;66401;42.016;21.454;2023-08-06T02:25:10;97152.03;;;18.17;92.18
62789;BME280;66401;42.016;21.454;2023-08-06T02:27:37;97153.13;;;18.06;91.48
62789;BME280;66401;42.016;21.454;2023-08-06T02:30:05;97161.53;;;18.08;91.64
62789;BME280;66401;42.016;21.454;2023-08-06T02:32:31;97152.06;;;17.96;91.33
62789;BME280;66401;42.016;21.454;2023-08-06T02:34:57;97154.72;;;17.86;92.35
62789;BME280;66401;42.016;21.454;2023-08-06T02:37:23;97145.47;;;17.94;91.73
62789;BME280;66401;42.016;21.454;2023-08-06T02:39:48;97159.97;;;17.96;91.70
62789;BME280;66401;42.016;21.454;2023-08-06T02:42:14;97158.38;;;18.00;91.08
62789;BME280;66401;42.016;21.454;2023-08-06T02:44:39;97149.69;;;18.00;91.32
62789;BME280;66401;42.016;21.454;2023-08-06T02:47:05;97152.34;;;17.80;92.06
62789;BME280;66401;42.016;21.454;2023-08-06T02:49:30;97148.41;;;17.72;93.17
62789;BME280;66401;42.016;21.454;2023-08-06T02:51:56;97128.38;;;17.61;93.35
62789;BME280;66401;42.016;21.454;2023-08-06T02:54:21;97123.09;;;17.66;93.18
62789;BME280;66401;42.016;21.454;2023-08-06T02:56:47;97118.88;;;17.65;94.28
62789;BME280;66401;42.016;21.454;2023-08-06T02:59:14;97103.63;;;17.52;94.51
62789;BME280;66401;42.016;21.454;2023-08-06T03:01:39;97107.31;;;17.45;95.39
62789;BME280;66401;42.016;21.454;2023-08-06T03:04:05;97097.06;;;17.49;94.31
62789;BME280;66401;42.016;21.454;2023-08-06T03:06:31;97093.63;;;17.54;94.63
62789;BME280;66401;42.016;21.454;2023-08-06T03:08:56;97088.59;;;17.62;93.81
62789;BME280;66401;42.016;21.454;2023-08-06T03:11:22;97070.44;;;17.45;94.80
62789;BME280;66401;42.016;21.454;2023-08-06T03:13:48;97054.16;;;17.38;95.56
62789;BME280;66401;42.016;21.454;2023-08-06T03:16:13;97041.50;;;17.40;94.80
62789;BME280;66401;42.016;21.454;2023-08-06T03:18:39;97040.44;;;17.52;93.43
62789;BME280;66401;42.016;21.454;2023-08-06T03:21:05;97053.06;;;17.55;94.71
62789;BME280;66401;42.016;21.454;2023-08-06T03:23:30;97052.28;;;17.54;94.93
62789;BME280;66401;42.016;21.454;2023-08-06T03:25:56;97062.03;;;17.59;95.06
62789;BME280;66401;42.016;21.454;2023-08-06T03:28:21;97049.91;;;17.63;93.17
62789;BME280;66401;42.016;21.454;2023-08-06T03:30:47;97045.19;;;17.60;93.07
62789;BME280;66401;42.016;21.454;2023-08-06T03:33:13;97034.91;;;17.53;94.54
62789;BME280;66401;42.016;21.454;2023-08-06T03:35:39;97050.44;;;17.60;93.11
62789;BME280;66401;42.016;21.454;2023-08-06T03:38:04;97051.00;;;17.41;93.48
62789;BME280;66401;42.016;21.454;2023-08-06T03:40:30;97067.84;;;17.30;94.32
62789;BME280;66401;42.016;21.454;2023-08-06T03:42:55;97070.75;;;17.29;95.51
62789;BME280;66401;42.016;21.454;2023-08-06T03:45:21;97059.94;;;17.40;95.19
62789;BME280;66401;42.016;21.454;2023-08-06T03:47:46;97072.84;;;17.42;94.97
62789;BME280;66401;42.016;21.454;2023-08-06T03:50:12;97075.69;;;17.56;94.08
62789;BME280;66401;42.016;21.454;2023-08-06T03:52:37;97066.75;;;17.62;94.09
62789;BME280;66401;42.016;21.454;2023-08-06T03:55:03;97072.81;;;17.67;93.22
62789;BME280;66401;42.016;21.454;2023-08-06T03:57:28;97074.13;;;17.65;94.08
62789;BME280;66401;42.016;21.454;2023-08-06T03:59:54;97074.91;;;17.65;94.32
62789;BME280;66401;42.016;21.454;2023-08-06T04:02:19;97088.88;;;17.71;94.19
62789;BME280;66401;42.016;21.454;2023-08-06T04:04:45;97095.97;;;17.76;92.98
62789;BME280;66401;42.016;21.454;2023-08-06T04:07:10;97105.19;;;17.83;92.86
62789;BME280;66401;42.016;21.454;2023-08-06T04:10:00;97100.47;;;17.80;95.11
62789;BME280;66401;42.016;21.454;2023-08-06T04:12:26;97110.19;;;17.90;94.11
62789;BME280;66401;42.016;21.454;2023-08-06T04:14:52;97122.56;;;17.89;93.03
62789;BME280;66401;42.016;21.454;2023-08-06T04:17:19;97134.72;;;17.70;94.26
62789;BME280;66401;42.016;21.454;2023-08-06T04:19:53;97142.06;;;17.68;95.28
62789;BME280;66401;42.016;21.454;2023-08-06T04:22:20;97132.59;;;17.72;93.27
62789;BME280;66401;42.016;21.454;2023-08-06T04:24:46;97146.56;;;17.88;92.81
62789;BME280;66401;42.016;21.454;2023-08-06T04:27:13;97136.03;;;17.88;92.91
62789;BME280;66401;42.016;21.454;2023-08-06T04:29:39;97147.84;;;17.90;94.19
62789;BME280;66401;42.016;21.454;2023-08-06T04:32:06;97138.91;;;17.96;92.73
62789;BME280;66401;42.016;21.454;2023-08-06T04:34:32;97137.28;;;18.11;92.21
62789;BME280;66401;42.016;21.454;2023-08-06T04:36:58;97119.88;;;18.20;91.64
62789;BME280;66401;42.016;21.454;2023-08-06T04:39:24;97129.59;;;18.35;91.45
62789;BME280;66401;42.016;21.454;2023-08-06T04:41:49;97140.41;;;18.28;93.22
62789;BME280;66401;42.016;21.454;2023-08-06T04:44:15;97155.97;;;18.24;92.79
62789;BME280;66401;42.016;21.454;2023-08-06T04:46:40;97159.41;;;18.20;92.69
62789;BME280;66401;42.016;21.454;2023-08-06T04:49:06;97163.34;;;18.27;93.29
62789;BME280;66401;42.016;21.454;2023-08-06T04:51:32;97163.59;;;18.36;91.79
62789;BME280;66401;42.016;21.454;2023-08-06T04:53:58;97160.47;;;18.24;93.76
62789;BME280;66401;42.016;21.454;2023-08-06T04:56:23;97165.22;;;18.07;93.47
62789;BME280;66401;42.016;21.454;2023-08-06T04:58:50;97159.94;;;18.12;93.36
62789;BME280;66401;42.016;21.454;2023-08-06T05:01:16;97171.50;;;18.21;92.66
62789;BME280;66401;42.016;21.454;2023-08-06T05:03:41;97171.53;;;18.16;93.90
62789;BME280;66401;42.016;21.454;2023-08-06T05:06:07;97178.91;;;18.24;93.49
62789;BME280;66401;42.016;21.454;2023-08-06T05:08:32;97185.78;;;17.94;95.20
62789;BME280;66401;42.016;21.454;2023-08-06T05:10:58;97188.94;;;18.01;97.12
62789;BME280;66401;42.016;21.454;2023-08-06T05:13:23;97183.91;;;18.20;95.82
62789;BME280;66401;42.016;21.454;2023-08-06T05:15:49;97186.25;;;18.37;95.39
62789;BME280;66401;42.016;21.454;2023-08-06T05:18:14;97186.25;;;18.37;93.98
62789;BME280;66401;42.016;21.454;2023-08-06T05:20:43;97191.03;;;18.20;95.46
62789;BME280;66401;42.016;21.454;2023-08-06T05:23:08;97191.03;;;18.15;95.84
62789;BME280;66401;42.016;21.454;2023-08-06T05:25:40;97198.94;;;18.15;96.78
62789;BME280;66401;42.016;21.454;2023-08-06T05:28:05;97196.56;;;18.13;95.58
62789;BME280;66401;42.016;21.454;2023-08-06T05:30:31;97177.06;;;18.19;95.48
62789;BME280;66401;42.016;21.454;2023-08-06T05:32:57;97187.25;;;18.51;94.95
62789;BME280;66401;42.016;21.454;2023-08-06T05:35:23;97181.47;;;18.54;95.40
62789;BME280;66401;42.016;21.454;2023-08-06T05:37:49;97191.41;;;18.78;93.25
62789;BME280;66401;42.016;21.454;2023-08-06T05:40:15;97178.16;;;18.88;92.26
62789;BME280;66401;42.016;21.454;2023-08-06T05:42:41;97174.97;;;18.91;93.23
62789;BME280;66401;42.016;21.454;2023-08-06T05:45:07;97189.78;;;18.87;92.06
62789;BME280;66401;42.016;21.454;2023-08-06T05:47:33;97185.13;;;18.64;93.12
62789;BME280;66401;42.016;21.454;2023-08-06T05:49:58;97185.34;;;18.77;92.90
62789;BME280;66401;42.016;21.454;2023-08-06T05:52:24;97183.53;;;18.73;93.36
62789;BME280;66401;42.016;21.454;2023-08-06T05:54:49;97184.56;;;18.77;94.17
62789;BME280;66401;42.016;21.454;2023-08-06T05:57:15;97190.34;;;18.84;93.01
62789;BME280;66401;42.016;21.454;2023-08-06T05:59:41;97196.44;;;18.74;93.43
62789;BME280;66401;42.016;21.454;2023-08-06T06:02:07;97183.91;;;19.05;92.71
62789;BME280;66401;42.016;21.454;2023-08-06T06:04:32;97193.47;;;19.35;90.84
62789;BME280;66401;42.016;21.454;2023-08-06T06:06:58;97202.97;;;19.36;88.86
62789;BME280;66401;42.016;21.454;2023-08-06T06:09:27;97213.53;;;19.81;89.50
62789;BME280;66401;42.016;21.454;2023-08-06T06:11:53;97204.31;;;20.07;85.01
62789;BME280;66401;42.016;21.454;2023-08-06T06:14:19;97208.69;;;20.51;81.08
62789;BME280;66401;42.016;21.454;2023-08-06T06:16:45;97214.06;;;20.89;81.16
62789;BME280;66401;42.016;21.454;2023-08-06T06:19:11;97222.25;;;20.68;80.21
62789;BME280;66401;42.016;21.454;2023-08-06T06:21:36;97223.09;;;20.88;79.31
62789;BME280;66401;42.016;21.454;2023-08-06T06:24:03;97221.28;;;21.26;75.56
62789;BME280;66401;42.016;21.454;2023-08-06T06:26:29;97217.34;;;21.61;73.40
62789;BME280;66401;42.016;21.454;2023-08-06T06:28:55;97221.47;;;22.18;72.63
62789;BME280;66401;42.016;21.454;2023-08-06T06:31:20;97222.91;;;22.43;73.24
62789;BME280;66401;42.016;21.454;2023-08-06T06:33:46;97225.38;;;22.53;74.34
62789;BME280;66401;42.016;21.454;2023-08-06T06:36:11;97221.13;;;22.66;73.13
62789;BME280;66401;42.016;21.454;2023-08-06T06:38:37;97214.25;;;22.51;74.88
62789;BME280;66401;42.016;21.454;2023-08-06T06:41:04;97215.22;;;22.28;74.03
62789;BME280;66401;42.016;21.454;2023-08-06T06:43:30;97216.41;;;22.22;76.82
62789;BME280;66401;42.016;21.454;2023-08-06T06:45:59;97206.03;;;22.07;74.44
62789;BME280;66401;42.016;21.454;2023-08-06T06:48:29;97203.63;;;21.91;75.25
62789;BME280;66401;42.016;21.454;2023-08-06T06:50:55;97207.81;;;21.60;76.79
62789;BME280;66401;42.016;21.454;2023-08-06T06:53:21;97202.19;;;21.48;78.23
62789;BME280;66401;42.016;21.454;2023-08-06T06:55:55;97197.16;;;21.65;78.21
62789;BME280;66401;42.016;21.454;2023-08-06T06:58:21;97200.38;;;21.62;77.75
62789;BME280;66401;42.016;21.454;2023-08-06T07:00:47;97194.16;;;21.53;77.13
62789;BME280;66401;42.016;21.454;2023-08-06T07:03:16;97198.94;;;21.51;78.19
62789;BME280;66401;42.016;21.454;2023-08-06T07:05:43;97201.25;;;21.57;79.79
62789;BME280;66401;42.016;21.454;2023-08-06T07:08:09;97201.88;;;21.68;78.69
62789;BME280;66401;42.016;21.454;2023-08-06T07:10:35;97205.06;;;21.84;74.94
62789;BME280;66401;42.016;21.454;2023-08-06T07:13:00;97207.19;;;22.00;77.18
62789;BME280;66401;42.016;21.454;2023-08-06T07:15:26;97196.28;;;22.02;73.11
62789;BME280;66401;42.016;21.454;2023-08-06T07:17:51;97191.94;;;21.92;73.04
62789;BME280;66401;42.016;21.454;2023-08-06T07:20:17;97183.38;;;22.14;72.86
62789;BME280;66401;42.016;21.454;2023-08-06T07:22:43;97194.78;;;22.28;71.86
62789;BME280;66401;42.016;21.454;2023-08-06T07:25:09;97192.81;;;22.34;71.57
62789;BME280;66401;42.016;21.454;2023-08-06T07:27:34;97200.50;;;22.49;68.15
62789;BME280;66401;42.016;21.454;2023-08-06T07:30:00;97191.66;;;22.40;69.94
62789;BME280;66401;42.016;21.454;2023-08-06T07:32:26;97202.28;;;22.40;70.57
62789;BME280;66401;42.016;21.454;2023-08-06T07:34:53;97199.91;;;22.52;69.55
62789;BME280;66401;42.016;21.454;2023-08-06T07:37:22;97206.69;;;22.72;69.06
62789;BME280;66401;42.016;21.454;2023-08-06T07:39:48;97206.34;;;22.19;68.56
62789;BME280;66401;42.016;21.454;2023-08-06T07:42:14;97219.06;;;21.52;69.33
62789;BME280;66401;42.016;21.454;2023-08-06T07:44:39;97218.06;;;21.48;69.11
62789;BME280;66401;42.016;21.454;2023-08-06T07:47:05;97227.94;;;21.61;71.08
62789;BME280;66401;42.016;21.454;2023-08-06T07:49:32;97213.72;;;21.89;69.47
62789;BME280;66401;42.016;21.454;2023-08-06T07:51:58;97213.41;;;22.10;68.83
62789;BME280;66401;42.016;21.454;2023-08-06T07:54:23;97211.16;;;22.17;65.92
62789;BME280;66401;42.016;21.454;2023-08-06T07:56:49;97209.34;;;22.31;69.08
62789;BME280;66401;42.016;21.454;2023-08-06T07:59:15;97217.81;;;22.61;69.55
62789;BME280;66401;42.016;21.454;2023-08-06T08:01:41;97213.69;;;22.96;73.56
62789;BME280;66401;42.016;21.454;2023-08-06T08:04:06;97215.03;;;23.21;66.54
62789;BME280;66401;42.016;21.454;2023-08-06T08:06:33;97230.13;;;23.34;65.75
62789;BME280;66401;42.016;21.454;2023-08-06T08:08:58;97216.13;;;23.42;66.32
62789;BME280;66401;42.016;21.454;2023-08-06T08:11:25;97224.81;;;23.48;65.02
62789;BME280;66401;42.016;21.454;2023-08-06T08:13:51;97216.19;;;23.28;63.08
62789;BME280;66401;42.016;21.454;2023-08-06T08:16:16;97225.44;;;23.31;64.80
62789;BME280;66401;42.016;21.454;2023-08-06T08:18:42;97219.72;;;23.37;63.73
62789;BME280;66401;42.016;21.454;2023-08-06T08:21:07;97208.66;;;23.44;65.40
62789;BME280;66401;42.016;21.454;2023-08-06T08:23:33;97215.00;;;23.70;64.67
62789;BME280;66401;42.016;21.454;2023-08-06T08:25:58;97211.97;;;23.63;64.83
62789;BME280;66401;42.016;21.454;2023-08-06T08:28:24;97200.75;;;23.66;62.27
62789;BME280;66401;42.016;21.454;2023-08-06T08:30:49;97218.25;;;23.67;62.25
62789;BME280;66401;42.016;21.454;2023-08-06T08:33:15;97213.56;;;23.64;61.17
62789;BME280;66401;42.016;21.454;2023-08-06T08:35:40;97209.72;;;23.57;62.09
62789;BME280;66401;42.016;21.454;2023-08-06T08:38:06;97184.41;;;23.59;63.23
62789;BME280;66401;42.016;21.454;2023-08-06T08:40:32;97208.81;;;24.06;66.58
62789;BME280;66401;42.016;21.454;2023-08-06T08:42:59;97219.88;;;24.31;61.86
62789;BME280;66401;42.016;21.454;2023-08-06T08:45:26;97210.84;;;24.32;60.39
62789;BME280;66401;42.016;21.454;2023-08-06T08:47:53;97216.16;;;24.32;58.56
62789;BME280;66401;42.016;21.454;2023-08-06T08:50:19;97221.25;;;24.42;61.37
62789;BME280;66401;42.016;21.454;2023-08-06T08:52:45;97208.25;;;24.49;58.93
62789;BME280;66401;42.016;21.454;2023-08-06T08:55:11;97201.56;;;24.60;59.92
62789;BME280;66401;42.016;21.454;2023-08-06T08:57:37;97204.03;;;24.48;58.55
62789;BME280;66401;42.016;21.454;2023-08-06T09:00:03;97212.84;;;24.57;59.16
62789;BME280;66401;42.016;21.454;2023-08-06T19:32:54;97415.81;;;23.35;49.53
62789;BME280;66401;42.016;21.454;2023-08-06T19:35:20;97423.78;;;23.35;52.23
62789;BME280;66401;42.016;21.454;2023-08-06T19:37:45;97424.31;;;23.37;52.19
62789;BME280;66401;42.016;21.454;2023-08-06T19:40:11;97409.25;;;23.33;50.82
62789;BME280;66401;42.016;21.454;2023-08-06T19:42:39;97412.91;;;23.37;50.08
62789;BME280;66401;42.016;21.454;2023-08-06T19:45:05;97401.25;;;23.33;49.62
62789;BME280;66401;42.016;21.454;2023-08-06T19:47:30;97410.25;;;23.37;50.55
62789;BME280;66401;42.016;21.454;2023-08-06T19:49:56;97421.84;;;23.41;49.73
62789;BME280;66401;42.016;21.454;2023-08-06T19:52:21;97428.53;;;23.38;48.69
62789;BME280;66401;42.016;21.454;2023-08-06T19:54:47;97438.75;;;23.31;49.42
62789;BME280;66401;42.016;21.454;2023-08-06T19:57:12;97443.66;;;23.24;49.82
62789;BME280;66401;42.016;21.454;2023-08-06T19:59:38;97443.97;;;23.23;50.34
62789;BME280;66401;42.016;21.454;2023-08-06T20:02:03;97438.94;;;23.07;51.23
62789;BME280;66401;42.016;21.454;2023-08-06T20:04:29;97427.13;;;23.00;52.09
62789;BME280;66401;42.016;21.454;2023-08-06T20:06:54;97432.78;;;22.93;52.82
62789;BME280;66401;42.016;21.454;2023-08-06T20:09:20;97433.16;;;22.87;51.41
62789;BME280;66401;42.016;21.454;2023-08-06T20:11:45;97434.38;;;22.94;51.42
62789;BME280;66401;42.016;21.454;2023-08-06T20:14:11;97440.09;;;23.01;51.37
62789;BME280;66401;42.016;21.454;2023-08-06T20:16:36;97439.50;;;23.04;52.87
62789;BME280;66401;42.016;21.454;2023-08-06T20:19:02;97439.50;;;23.04;52.24
62789;BME280;66401;42.016;21.454;2023-08-06T20:21:27;97444.69;;;22.96;51.85
62789;BME280;66401;42.016;21.454;2023-08-06T20:23:53;97441.06;;;22.92;52.53
62789;BME280;66401;42.016;21.454;2023-08-06T20:26:18;97446.38;;;22.92;51.04
62789;BME280;66401;42.016;21.454;2023-08-06T20:28:44;97451.47;;;22.88;52.65
62789;BME280;66401;42.016;21.454;2023-08-06T20:31:09;97451.47;;;22.88;51.69
62789;BME280;66401;42.016;21.454;2023-08-06T20:33:35;97445.72;;;22.81;52.00
62789;BME280;66401;42.016;21.454;2023-08-06T20:36:02;97451.19;;;22.71;53.48
62789;BME280;66401;42.016;21.454;2023-08-06T20:38:27;97448.91;;;22.64;53.73
62789;BME280;66401;42.016;21.454;2023-08-06T20:40:53;97454.50;;;22.63;53.76
62789;BME280;66401;42.016;21.454;2023-08-06T20:43:21;97450.34;;;22.56;53.82
62789;BME280;66401;42.016;21.454;2023-08-06T20:45:56;97458.09;;;22.53;55.63
62789;BME280;66401;42.016;21.454;2023-08-06T20:48:23;97463.47;;;22.48;55.28
62789;BME280;66401;42.016;21.454;2023-08-06T20:50:49;97445.03;;;22.38;54.84
62789;BME280;66401;42.016;21.454;2023-08-06T20:53:15;97469.00;;;22.51;54.97
62789;BME280;66401;42.016;21.454;2023-08-06T20:55:40;97477.47;;;22.53;55.04
62789;BME280;66401;42.016;21.454;2023-08-06T20:58:06;97475.00;;;22.38;54.98
62789;BME280;66401;42.016;21.454;2023-08-06T21:00:32;97485.59;;;22.00;55.98
62789;BME280;66401;42.016;21.454;2023-08-06T21:02:57;97488.88;;;21.92;56.36
62789;BME280;66401;42.016;21.454;2023-08-06T21:05:23;97493.09;;;21.93;56.41
62789;BME280;66401;42.016;21.454;2023-08-06T21:07:50;97498.44;;;21.88;58.12
62789;BME280;66401;42.016;21.454;2023-08-06T21:10:16;97495.50;;;21.90;58.10
62789;BME280;66401;42.016;21.454;2023-08-06T21:12:41;97505.91;;;21.86;58.21
62789;BME280;66401;42.016;21.454;2023-08-06T21:15:07;97502.50;;;21.81;58.27
62789;BME280;66401;42.016;21.454;2023-08-06T21:17:33;97519.66;;;21.88;57.54
62789;BME280;66401;42.016;21.454;2023-08-06T21:19:58;97520.22;;;21.85;57.72
62789;BME280;66401;42.016;21.454;2023-08-06T21:22:24;97506.81;;;21.77;56.18
62789;BME280;66401;42.016;21.454;2023-08-06T21:24:50;97519.38;;;21.66;57.64
62789;BME280;66401;42.016;21.454;2023-08-06T21:27:15;97525.13;;;21.73;56.90
62789;BME280;66401;42.016;21.454;2023-08-06T21:29:40;97524.34;;;21.73;58.27
62789;BME280;66401;42.016;21.454;2023-08-06T21:32:09;97532.13;;;21.64;58.79
62789;BME280;66401;42.016;21.454;2023-08-06T21:34:34;97530.81;;;21.61;58.63
62789;BME280;66401;42.016;21.454;2023-08-06T21:36:59;97531.38;;;21.58;58.54
62789;BME280;66401;42.016;21.454;2023-08-06T21:39:25;97529.28;;;21.55;58.82
62789;BME280;66401;42.016;21.454;2023-08-06T21:41:50;97529.88;;;21.52;59.25
62789;BME280;66401;42.016;21.454;2023-08-06T21:44:16;97530.13;;;21.51;59.54
62789;BME280;66401;42.016;21.454;2023-08-06T21:46:41;97526.97;;;21.49;60.01
62789;BME280;66401;42.016;21.454;2023-08-06T21:49:07;97534.50;;;21.36;60.52
62789;BME280;66401;42.016;21.454;2023-08-06T21:51:32;97532.34;;;21.38;60.20
62789;BME280;66401;42.016;21.454;2023-08-06T21:53:59;97529.78;;;21.33;59.67
62789;BME280;66401;42.016;21.454;2023-08-06T21:56:25;97556.72;;;21.01;61.90
62789;BME280;66401;42.016;21.454;2023-08-06T21:58:50;97560.25;;;20.92;62.78
62789;BME280;66401;42.016;21.454;2023-08-06T22:01:17;97566.38;;;20.87;63.45
62789;BME280;66401;42.016;21.454;2023-08-06T22:03:43;97554.88;;;21.02;62.80
62789;BME280;66401;42.016;21.454;2023-08-06T22:06:09;97558.78;;;21.09;60.93
62789;BME280;66401;42.016;21.454;2023-08-06T22:08:39;97557.50;;;21.07;59.39
62789;BME280;66401;42.016;21.454;2023-08-06T22:11:05;97557.56;;;20.97;62.11
62789;BME280;66401;42.016;21.454;2023-08-06T22:13:31;97562.38;;;20.90;62.10
62789;BME280;66401;42.016;21.454;2023-08-06T22:15:57;97557.63;;;20.86;61.69
62789;BME280;66401;42.016;21.454;2023-08-06T22:18:23;97560.25;;;20.92;62.11
62789;BME280;66401;42.016;21.454;2023-08-06T22:20:48;97559.81;;;20.74;63.79
62789;BME280;66401;42.016;21.454;2023-08-06T22:23:15;97551.63;;;20.76;63.20
62789;BME280;66401;42.016;21.454;2023-08-06T22:25:40;97558.72;;;20.85;63.64
62789;BME280;66401;42.016;21.454;2023-08-06T22:28:06;97549.72;;;20.81;63.97
62789;BME280;66401;42.016;21.454;2023-08-06T22:30:32;97553.00;;;20.68;63.67
62789;BME280;66401;42.016;21.454;2023-08-06T22:32:58;97562.50;;;20.69;64.67
62789;BME280;66401;42.016;21.454;2023-08-06T22:35:23;97549.34;;;20.59;64.05
62789;BME280;66401;42.016;21.454;2023-08-06T22:37:49;97550.34;;;20.68;64.17
62789;BME280;66401;42.016;21.454;2023-08-06T22:40:16;97557.34;;;20.44;65.40
62789;BME280;66401;42.016;21.454;2023-08-06T22:42:42;97564.78;;;20.32;66.13
62789;BME280;66401;42.016;21.454;2023-08-06T22:45:12;97569.00;;;20.38;64.35
62789;BME280;66401;42.016;21.454;2023-08-06T22:47:39;97561.84;;;20.48;64.00
62789;BME280;66401;42.016;21.454;2023-08-06T22:50:09;97577.13;;;20.56;64.19
62789;BME280;66401;42.016;21.454;2023-08-06T22:52:35;97579.22;;;20.60;64.00
62789;BME280;66401;42.016;21.454;2023-08-06T22:55:01;97571.00;;;20.61;64.15
62789;BME280;66401;42.016;21.454;2023-08-06T22:57:27;97574.69;;;20.65;62.98
62789;BME280;66401;42.016;21.454;2023-08-06T22:59:52;97576.91;;;20.48;62.74
62789;BME280;66401;42.016;21.454;2023-08-06T23:02:18;97572.16;;;20.40;64.09
62789;BME280;66401;42.016;21.454;2023-08-06T23:04:43;97592.78;;;20.43;63.21
62789;BME280;66401;42.016;21.454;2023-08-06T23:07:09;97593.59;;;20.38;64.66
62789;BME280;66401;42.016;21.454;2023-08-06T23:09:34;97588.06;;;20.29;65.69
62789;BME280;66401;42.016;21.454;2023-08-06T23:12:00;97592.41;;;20.00;65.15
62789;BME280;66401;42.016;21.454;2023-08-06T23:14:25;97603.47;;;20.07;65.84
62789;BME280;66401;42.016;21.454;2023-08-06T23:16:52;97606.66;;;19.94;64.63
62789;BME280;66401;42.016;21.454;2023-08-06T23:19:17;97594.53;;;19.78;65.08
62789;BME280;66401;42.016;21.454;2023-08-06T23:21:43;97603.50;;;19.87;64.03
62789;BME280;66401;42.016;21.454;2023-08-06T23:24:08;97605.09;;;19.93;63.42